Time;durP1;ratioP1;P1;durP2;ratioP2;P2;SDS_P1;SDS_P2;PMS_P1;PMS_P2;Temp;Humidity;BMP_temperature;BMP_pressure;BME280_temperature;BME280_humidity;BME280_pressure;Samples;Min_cycle;Max_cycle;Signal;HPM_P1;HPM_P2
2023/01/02 00:01:57;;;;;;;19.75;13.80;;;10.80;99.90;;;;;;5101874;27;20031;-82
2023/01/02 00:04:22;;;;;;;19.35;14.65;;;10.90;99.90;;;;;;5128528;27;20047;-82
2023/01/02 00:06:48;;;;;;;19.25;15.15;;;10.90;99.90;;;;;;5126896;27;20386;-82
2023/01/02 00:09:14;;;;;;;20.00;14.35;;;10.90;99.90;;;;;;5108305;27;20172;-83
2023/01/02 00:11:39;;;;;;;20.55;15.38;;;10.90;99.90;;;;;;5125787;27;20554;-82
2023/01/02 00:14:05;;;;;;;22.77;15.95;;;10.90;99.90;;;;;;5107696;27;20050;-82
2023/01/02 00:16:31;;;;;;;25.02;18.60;;;10.90;99.90;;;;;;5108067;27;20046;-82
2023/01/02 00:18:56;;;;;;;22.52;16.38;;;10.90;99.90;;;;;;5110844;27;20046;-83
2023/01/02 00:21:22;;;;;;;19.88;15.82;;;10.90;99.90;;;;;;5110205;27;20046;-83
2023/01/02 00:23:47;;;;;;;24.85;18.70;;;10.90;99.90;;;;;;5129654;27;20121;-81
2023/01/02 00:26:13;;;;;;;24.63;19.50;;;10.90;99.90;;;;;;5108534;27;20173;-81
2023/01/02 00:28:39;;;;;;;31.33;21.30;;;10.90;99.90;;;;;;5114544;27;20035;-81
2023/01/02 00:31:09;;;;;;;26.48;22.23;;;10.90;99.90;;;;;;5129764;27;20063;-82
2023/01/02 00:33:36;;;;;;;34.17;24.65;;;10.90;99.90;;;;;;5127845;27;20035;-82
2023/01/02 00:36:10;;;;;;;29.95;24.10;;;10.90;99.90;;;;;;5109610;27;20039;-82
2023/01/02 00:38:36;;;;;;;33.28;26.48;;;10.90;99.90;;;;;;5128469;27;20043;-83
2023/01/02 00:41:01;;;;;;;32.35;27.52;;;10.90;99.90;;;;;;5130724;27;20368;-82
2023/01/02 00:43:27;;;;;;;38.05;29.67;;;10.90;99.90;;;;;;5105084;27;20046;-81
2023/01/02 00:45:53;;;;;;;36.58;30.02;;;10.90;99.90;;;;;;5110111;27;20045;-83
2023/01/02 00:48:20;;;;;;;33.53;29.13;;;10.90;99.90;;;;;;5127699;27;20116;-82
2023/01/02 00:50:45;;;;;;;34.13;27.85;;;10.90;99.90;;;;;;5111648;27;20046;-82
2023/01/02 00:53:11;;;;;;;40.38;31.17;;;11.00;99.90;;;;;;5109120;27;20050;-82
2023/01/02 00:55:37;;;;;;;33.75;28.10;;;11.00;99.90;;;;;;5110100;27;20389;-82
2023/01/02 00:58:03;;;;;;;36.85;28.95;;;11.00;99.90;;;;;;5125665;27;20035;-81
2023/01/02 01:00:28;;;;;;;35.33;27.92;;;11.00;99.90;;;;;;5111023;27;20436;-81
2023/01/02 01:02:58;;;;;;;37.00;29.23;;;11.00;99.90;;;;;;5106809;27;20031;-82
2023/01/02 01:05:25;;;;;;;35.83;28.50;;;11.00;99.90;;;;;;5109051;27;20506;-82
2023/01/02 01:07:51;;;;;;;33.45;27.33;;;11.00;99.90;;;;;;5126004;27;20039;-82
2023/01/02 01:10:16;;;;;;;38.20;28.02;;;11.00;99.90;;;;;;5105358;27;20442;-82
2023/01/02 01:12:42;;;;;;;34.63;27.33;;;11.10;99.90;;;;;;5126302;27;20074;-82
2023/01/02 01:15:08;;;;;;;35.05;26.80;;;11.00;99.90;;;;;;5095318;27;20384;-81
2023/01/02 01:17:33;;;;;;;34.20;26.48;;;11.10;99.90;;;;;;5128895;27;20084;-82
2023/01/02 01:19:59;;;;;;;32.95;25.08;;;11.10;99.90;;;;;;5109847;27;20780;-82
2023/01/02 01:22:25;;;;;;;33.63;25.13;;;11.10;99.90;;;;;;5127133;27;20055;-82
2023/01/02 01:24:50;;;;;;;30.30;24.00;;;11.10;99.90;;;;;;5106830;27;20047;-82
2023/01/02 01:27:16;;;;;;;33.75;23.83;;;11.10;99.90;;;;;;5127208;27;20064;-82
2023/01/02 01:29:42;;;;;;;28.55;22.33;;;11.10;99.90;;;;;;5109598;27;20077;-82
2023/01/02 01:32:07;;;;;;;26.67;20.85;;;11.10;99.90;;;;;;5106923;27;20133;-82
2023/01/02 01:34:33;;;;;;;28.55;20.85;;;11.20;99.90;;;;;;5089031;27;20066;-83
2023/01/02 01:36:58;;;;;;;25.52;19.83;;;11.20;99.90;;;;;;5127796;27;20090;-82
2023/01/02 01:39:24;;;;;;;24.90;19.85;;;11.20;99.90;;;;;;5091258;27;20035;-81
2023/01/02 01:41:50;;;;;;;24.85;17.85;;;11.20;99.90;;;;;;5108076;27;20042;-81
2023/01/02 01:44:48;;;;;;;24.05;17.23;;;11.20;99.90;;;;;;5110399;27;20152;-82
2023/01/02 01:47:22;;;;;;;24.02;17.30;;;11.20;99.90;;;;;;5121388;27;20089;-82
2023/01/02 01:49:54;;;;;;;26.38;18.38;;;11.20;99.90;;;;;;5107736;27;20042;-82
2023/01/02 01:52:26;;;;;;;24.60;17.90;;;11.20;99.90;;;;;;5110021;27;20830;-82
2023/01/02 01:54:59;;;;;;;22.33;17.50;;;11.30;99.90;;;;;;5103802;27;20122;-82
2023/01/02 01:57:37;;;;;;;28.52;19.23;;;11.30;99.90;;;;;;5105318;27;20038;-82
2023/01/02 02:00:04;;;;;;;26.92;17.80;;;11.30;99.90;;;;;;5123418;27;20051;-81
2023/01/02 02:02:32;;;;;;;22.50;16.75;;;11.30;99.90;;;;;;5106940;27;20047;-81
2023/01/02 02:05:00;;;;;;;22.52;16.63;;;11.30;99.90;;;;;;5110468;27;20039;-81
2023/01/02 02:07:26;;;;;;;20.67;16.42;;;11.20;99.90;;;;;;5126417;27;20073;-82
2023/01/02 02:09:58;;;;;;;22.92;16.88;;;11.30;99.90;;;;;;5104732;27;20851;-82
2023/01/02 02:12:25;;;;;;;23.42;17.05;;;11.30;99.90;;;;;;5124130;27;20039;-83
2023/01/02 02:14:50;;;;;;;24.25;16.38;;;11.30;99.90;;;;;;5105636;27;20115;-83
2023/01/02 02:18:05;;;;;;;22.98;16.58;;;11.30;99.90;;;;;;5123945;27;20035;-82
2023/01/02 02:20:41;;;;;;;23.23;16.15;;;11.30;99.90;;;;;;5061412;28;20051;-82
2023/01/02 02:23:27;;;;;;;22.13;15.68;;;11.20;99.90;;;;;;5061998;28;20452;-82
2023/01/02 02:26:05;;;;;;;21.65;15.65;;;11.20;99.90;;;;;;5047314;28;20049;-83
2023/01/02 02:28:52;;;;;;;23.60;15.45;;;11.30;99.90;;;;;;5080673;28;20072;-82
2023/01/02 02:31:34;;;;;;;24.15;15.90;;;11.30;99.90;;;;;;5048884;28;20051;-82
2023/01/02 02:34:14;;;;;;;22.02;15.63;;;11.30;99.90;;;;;;5048034;28;20497;-81
2023/01/02 02:36:47;;;;;;;19.92;15.88;;;11.30;99.90;;;;;;5062631;28;20075;-81
2023/01/02 02:39:28;;;;;;;24.85;16.83;;;11.30;99.90;;;;;;5062274;28;20076;-82
2023/01/02 02:42:11;;;;;;;20.10;14.75;;;11.30;99.90;;;;;;5060825;28;20147;-83
2023/01/02 02:45:01;;;;;;;22.00;14.95;;;11.30;99.90;;;;;;5076338;28;20397;-82
2023/01/02 02:47:50;;;;;;;25.67;14.90;;;11.30;99.90;;;;;;5062554;28;20029;-82
2023/01/02 02:50:33;;;;;;;22.48;15.45;;;11.30;99.90;;;;;;5058035;28;20067;-81
2023/01/02 02:53:12;;;;;;;20.85;14.60;;;11.30;99.90;;;;;;5104178;28;20055;-82
2023/01/02 02:55:47;;;;;;;22.77;14.45;;;11.30;99.90;;;;;;5100196;28;20047;-82
2023/01/02 02:58:15;;;;;;;19.80;13.85;;;11.30;99.90;;;;;;5103190;28;20035;-81
2023/01/02 03:00:40;;;;;;;19.85;13.65;;;11.40;99.90;;;;;;5104210;28;20035;-82
2023/01/02 03:03:26;;;;;;;21.35;14.93;;;11.40;99.90;;;;;;5106221;28;20039;-81
2023/01/02 03:06:17;;;;;;;21.13;13.85;;;11.40;99.90;;;;;;5142550;27;20055;-81
2023/01/02 03:09:01;;;;;;;20.37;13.87;;;11.40;99.90;;;;;;5105497;28;20074;-81
2023/01/02 03:11:44;;;;;;;21.45;14.10;;;11.40;99.90;;;;;;5123018;28;20056;-81
2023/01/02 03:14:23;;;;;;;20.60;14.52;;;11.40;99.90;;;;;;5118606;28;20118;-81
2023/01/02 03:17:04;;;;;;;21.27;14.18;;;11.40;99.90;;;;;;5107404;28;20060;-82
2023/01/02 03:19:37;;;;;;;21.17;14.65;;;11.40;99.90;;;;;;5091403;28;20054;-82
2023/01/02 03:22:13;;;;;;;22.40;14.70;;;11.40;99.90;;;;;;5088561;28;20050;-82
2023/01/02 03:24:42;;;;;;;22.23;14.27;;;11.40;99.90;;;;;;5105588;28;20425;-82
2023/01/02 03:27:16;;;;;;;22.88;14.23;;;11.50;99.90;;;;;;5107153;28;20074;-81
2023/01/02 03:29:43;;;;;;;23.58;15.23;;;11.40;99.90;;;;;;5126058;28;20039;-82
2023/01/02 03:32:14;;;;;;;20.20;14.40;;;11.40;99.90;;;;;;5106078;28;20451;-82
2023/01/02 03:34:43;;;;;;;22.77;14.75;;;11.40;99.90;;;;;;5108201;28;20047;-82
2023/01/02 03:37:17;;;;;;;21.65;14.57;;;11.40;99.90;;;;;;5104726;28;20109;-83
2023/01/02 03:39:52;;;;;;;21.60;14.75;;;11.40;99.90;;;;;;5108567;28;20061;-83
2023/01/02 03:42:28;;;;;;;22.80;15.30;;;11.40;99.90;;;;;;5107832;28;20039;-83
2023/01/02 03:45:16;;;;;;;22.52;14.43;;;11.40;99.90;;;;;;5106865;28;20091;-83
2023/01/02 03:48:02;;;;;;;21.90;14.50;;;11.40;99.90;;;;;;5105494;28;20079;-83
2023/01/02 03:50:35;;;;;;;20.65;14.60;;;11.40;99.90;;;;;;5122471;28;20104;-83
2023/01/02 03:53:01;;;;;;;21.77;14.43;;;11.40;99.90;;;;;;5125819;28;20121;-83
2023/01/02 03:55:31;;;;;;;21.27;14.25;;;11.40;99.90;;;;;;5126595;28;20432;-83
2023/01/02 03:58:11;;;;;;;20.05;14.07;;;11.40;99.90;;;;;;5122609;28;20034;-83
2023/01/02 04:00:50;;;;;;;24.02;14.15;;;11.40;99.90;;;;;;5104289;27;20043;-83
2023/01/02 04:03:23;;;;;;;19.60;14.27;;;11.40;99.90;;;;;;5111404;27;20196;-82
2023/01/02 04:05:58;;;;;;;19.60;13.90;;;11.40;99.90;;;;;;5104516;27;20039;-83
2023/01/02 04:08:31;;;;;;;21.65;14.07;;;11.50;99.90;;;;;;5128699;27;20043;-84
2023/01/02 04:10:59;;;;;;;21.15;14.70;;;11.50;99.90;;;;;;5124655;27;20459;-83
2023/01/02 04:13:43;;;;;;;22.13;14.35;;;11.40;99.90;;;;;;5110735;27;20091;-83
2023/01/02 04:16:13;;;;;;;19.45;13.43;;;11.50;99.90;;;;;;5109168;27;20326;-83
2023/01/02 04:18:43;;;;;;;20.75;13.77;;;11.50;99.90;;;;;;5110761;27;20172;-83
2023/01/02 04:21:17;;;;;;;20.17;14.02;;;11.50;99.90;;;;;;5127487;27;20039;-83
2023/01/02 04:23:52;;;;;;;20.42;14.05;;;11.50;99.90;;;;;;5129493;27;20061;-83
2023/01/02 04:26:30;;;;;;;19.63;13.13;;;11.50;99.90;;;;;;5111386;27;20066;-82
2023/01/02 04:28:56;;;;;;;22.25;13.40;;;11.60;99.90;;;;;;5126309;27;20050;-81
2023/01/02 04:31:37;;;;;;;16.90;12.68;;;11.60;99.90;;;;;;5110899;27;20039;-82
2023/01/02 04:34:04;;;;;;;;;;;11.60;99.90;;;;;;5107827;27;20081;-83
2023/01/02 04:36:36;;;;;;;20.85;13.50;;;11.60;99.90;;;;;;5143969;27;19955;-83
2023/01/02 04:39:01;;;;;;;18.40;12.85;;;11.60;99.90;;;;;;5103356;27;20047;-82
2023/01/02 04:41:27;;;;;;;17.88;13.20;;;11.70;99.90;;;;;;5105868;27;20035;-82
2023/01/02 04:43:56;;;;;;;17.13;12.20;;;11.70;99.90;;;;;;5128750;27;20031;-82
2023/01/02 04:46:22;;;;;;;17.98;11.98;;;11.70;99.90;;;;;;5107403;27;20123;-82
2023/01/02 04:48:48;;;;;;;21.23;12.45;;;11.70;99.90;;;;;;5109210;27;20039;-83
2023/01/02 04:51:14;;;;;;;18.73;12.43;;;11.70;99.90;;;;;;5106401;27;20050;-83
2023/01/02 04:53:40;;;;;;;18.95;11.50;;;11.80;99.90;;;;;;5124222;27;20062;-83
2023/01/02 04:56:06;;;;;;;16.75;11.82;;;11.80;99.90;;;;;;5110942;27;20042;-82
2023/01/02 04:58:31;;;;;;;17.05;11.88;;;11.80;99.90;;;;;;5110371;27;20046;-83
2023/01/02 05:00:57;;;;;;;16.17;11.23;;;11.80;99.90;;;;;;5108781;27;20068;-82
2023/01/02 05:03:23;;;;;;;17.05;11.52;;;11.80;99.90;;;;;;5110468;27;20039;-82
2023/01/02 05:05:48;;;;;;;16.50;11.55;;;11.80;99.90;;;;;;5105600;27;20039;-83
2023/01/02 05:08:14;;;;;;;19.75;12.15;;;11.80;99.90;;;;;;5128347;27;20042;-83
2023/01/02 05:10:39;;;;;;;19.95;11.73;;;11.80;99.90;;;;;;5107304;27;20467;-84
2023/01/02 05:13:05;;;;;;;20.70;12.48;;;11.90;99.90;;;;;;5123555;27;20043;-82
2023/01/02 05:15:31;;;;;;;16.80;10.95;;;11.90;99.90;;;;;;5110019;27;20057;-83
2023/01/02 05:17:57;;;;;;;16.98;11.32;;;11.90;99.90;;;;;;5106846;27;20047;-83
2023/01/02 05:20:23;;;;;;;19.25;12.07;;;11.90;99.90;;;;;;5108897;27;20253;-83
2023/01/02 05:25:35;;;;;;;16.90;11.57;;;11.90;99.90;;;;;;5117403;27;20040;-83
2023/01/02 05:28:02;;;;;;;16.13;11.75;;;11.90;99.90;;;;;;5128438;27;20123;-83
2023/01/02 05:30:27;;;;;;;17.90;11.23;;;11.90;99.90;;;;;;5125794;27;20035;-83
2023/01/02 05:32:53;;;;;;;17.27;11.35;;;11.90;99.90;;;;;;5127975;27;20046;-83
2023/01/02 05:35:19;;;;;;;20.30;11.98;;;12.00;99.90;;;;;;5125528;27;20043;-83
2023/01/02 05:37:45;;;;;;;18.40;11.18;;;12.00;99.90;;;;;;5108135;27;20042;-83
2023/01/02 05:40:11;;;;;;;16.60;11.07;;;12.00;99.90;;;;;;5141499;27;20088;-83
2023/01/02 05:42:36;;;;;;;17.42;11.98;;;12.00;99.90;;;;;;5123624;27;20039;-84
2023/01/02 05:45:03;;;;;;;17.70;11.25;;;12.00;99.90;;;;;;5125256;27;20119;-84
2023/01/02 05:47:29;;;;;;;17.23;11.30;;;12.00;99.90;;;;;;5109438;27;20694;-84
2023/01/02 05:49:54;;;;;;;19.17;12.13;;;12.00;99.90;;;;;;5109547;27;20126;-84
2023/01/02 05:52:20;;;;;;;18.75;11.82;;;12.00;99.90;;;;;;5127856;27;20097;-84
2023/01/02 05:54:45;;;;;;;16.92;11.32;;;12.00;99.90;;;;;;5092493;27;20035;-83
2023/01/02 05:57:11;;;;;;;17.98;11.73;;;12.00;99.90;;;;;;5123696;27;20038;-84
2023/01/02 05:59:37;;;;;;;17.40;11.15;;;12.00;99.90;;;;;;5110133;27;20047;-83
2023/01/02 06:02:02;;;;;;;16.60;10.90;;;12.00;99.90;;;;;;5107202;27;20047;-83
2023/01/02 06:04:28;;;;;;;17.33;10.60;;;12.00;99.90;;;;;;5121608;27;20035;-84
2023/01/02 06:06:53;;;;;;;18.95;10.75;;;12.00;99.90;;;;;;5100724;27;20168;-82
2023/01/02 06:09:19;;;;;;;18.23;10.63;;;12.00;99.90;;;;;;5124490;27;20487;-82
2023/01/02 06:11:44;;;;;;;18.98;11.18;;;12.00;99.90;;;;;;5123658;27;20039;-82
2023/01/02 06:14:10;;;;;;;17.88;10.13;;;12.10;99.90;;;;;;5109585;27;20031;-82
2023/01/02 06:16:37;;;;;;;17.25;10.18;;;12.10;99.90;;;;;;5107999;27;20039;-82
2023/01/02 06:19:03;;;;;;;17.25;10.20;;;12.00;99.90;;;;;;5126217;27;20125;-82
2023/01/02 06:21:29;;;;;;;17.23;10.52;;;12.10;99.90;;;;;;5107908;27;20390;-82
2023/01/02 06:23:56;;;;;;;13.98;9.93;;;12.10;99.90;;;;;;5122507;27;20108;-81
2023/01/02 06:26:23;;;;;;;15.45;10.30;;;12.10;99.90;;;;;;5126505;27;20031;-82
2023/01/02 06:28:55;;;;;;;13.70;9.95;;;12.10;99.90;;;;;;5106101;27;20092;-81
2023/01/02 06:31:24;;;;;;;18.20;10.75;;;12.10;99.90;;;;;;5120121;27;20035;-83
2023/01/02 06:33:57;;;;;;;18.00;10.95;;;12.10;99.90;;;;;;5102111;28;20096;-82
2023/01/02 06:36:24;;;;;;;16.55;10.70;;;12.10;99.90;;;;;;5120392;27;20043;-83
2023/01/02 06:38:49;;;;;;;17.77;10.50;;;12.10;99.90;;;;;;5107942;27;20413;-82
2023/01/02 06:41:16;;;;;;;16.00;10.65;;;12.10;99.90;;;;;;5105622;27;20099;-84
2023/01/02 06:43:47;;;;;;;19.45;10.57;;;12.10;99.90;;;;;;5107982;28;20067;-82
2023/01/02 06:46:13;;;;;;;16.40;10.05;;;12.10;99.90;;;;;;5118643;28;20043;-81
2023/01/02 06:48:40;;;;;;;16.30;10.15;;;12.10;99.90;;;;;;5125631;28;21237;-82
2023/01/02 06:51:07;;;;;;;17.15;10.70;;;12.10;99.90;;;;;;5127101;28;20122;-82
2023/01/02 06:53:34;;;;;;;14.25;9.43;;;12.10;99.90;;;;;;5107769;28;20145;-84
2023/01/02 06:56:00;;;;;;;17.13;9.25;;;12.10;99.90;;;;;;5108115;28;20089;-83
2023/01/02 06:58:28;;;;;;;14.85;10.27;;;12.10;99.90;;;;;;5107034;28;20401;-83
2023/01/02 07:00:54;;;;;;;12.77;9.55;;;12.10;99.90;;;;;;5106770;28;20114;-83
2023/01/02 07:03:19;;;;;;;14.20;10.20;;;12.20;99.90;;;;;;5122450;28;20570;-82
2023/01/02 07:05:46;;;;;;;13.02;8.75;;;12.20;99.90;;;;;;5109287;28;20066;-82
2023/01/02 07:08:12;;;;;;;13.35;9.50;;;12.20;99.90;;;;;;5107415;28;20469;-81
2023/01/02 07:10:38;;;;;;;12.35;9.10;;;12.20;99.90;;;;;;5109261;28;20044;-82
2023/01/02 07:13:04;;;;;;;13.25;8.45;;;12.30;99.90;;;;;;5105971;28;20441;-82
2023/01/02 07:15:31;;;;;;;11.63;7.93;;;12.30;99.90;;;;;;5091229;28;20069;-83
2023/01/02 07:17:56;;;;;;;9.18;7.10;;;12.30;99.90;;;;;;5121863;28;20035;-82
2023/01/02 07:20:22;;;;;;;7.40;5.10;;;12.40;99.90;;;;;;5127880;28;20059;-81
2023/01/02 07:22:50;;;;;;;7.55;4.65;;;12.20;99.90;;;;;;5127297;28;20399;-81
2023/01/02 07:25:16;;;;;;;7.28;4.50;;;12.10;99.90;;;;;;5108053;28;20482;-80
2023/01/02 07:27:42;;;;;;;6.78;3.70;;;12.00;99.90;;;;;;5108736;28;20112;-81
2023/01/02 07:30:08;;;;;;;6.65;3.28;;;11.80;99.90;;;;;;5126403;28;20756;-82
2023/01/02 07:32:34;;;;;;;5.93;3.50;;;11.70;99.90;;;;;;5106491;28;20043;-84
2023/01/02 07:34:59;;;;;;;6.60;3.70;;;11.60;99.90;;;;;;5110640;27;20483;-82
2023/01/02 07:37:25;;;;;;;5.15;3.05;;;11.50;99.90;;;;;;5112609;27;20062;-82
2023/01/02 07:39:50;;;;;;;5.68;2.85;;;11.40;99.90;;;;;;5094286;27;20441;-81
2023/01/02 07:42:16;;;;;;;5.53;2.97;;;11.30;99.90;;;;;;5112515;27;20055;-81
2023/01/02 07:44:41;;;;;;;6.70;4.10;;;11.20;99.90;;;;;;5127890;27;20038;-81
2023/01/02 07:47:07;;;;;;;6.45;4.18;;;11.10;99.90;;;;;;5124732;27;20039;-80
2023/01/02 07:49:33;;;;;;;7.20;4.93;;;11.00;99.90;;;;;;5127638;27;20047;-82
2023/01/02 07:51:58;;;;;;;7.90;5.53;;;10.90;99.90;;;;;;5129506;27;20031;-81
2023/01/02 07:54:24;;;;;;;8.13;6.13;;;10.90;99.90;;;;;;5106217;27;20042;-81
2023/01/02 07:56:50;;;;;;;10.18;7.38;;;10.80;99.90;;;;;;5109302;27;20043;-80
2023/01/02 07:59:16;;;;;;;10.48;8.25;;;10.80;99.90;;;;;;5134669;27;20436;-80
2023/01/02 08:01:42;;;;;;;11.70;9.30;;;10.70;99.90;;;;;;5107805;27;20047;-81
2023/01/02 08:04:07;;;;;;;11.05;8.40;;;10.70;99.90;;;;;;5108098;27;20050;-82
2023/01/02 08:06:33;;;;;;;11.10;8.70;;;10.60;99.90;;;;;;5108381;27;20050;-81
2023/01/02 08:08:59;;;;;;;11.63;8.65;;;10.50;99.90;;;;;;5109490;27;20047;-80
2023/01/02 08:11:24;;;;;;;12.02;8.95;;;10.50;99.90;;;;;;5099501;27;20032;-81
2023/01/02 08:13:50;;;;;;;11.43;8.30;;;10.40;99.90;;;;;;5109679;27;20035;-81
2023/01/02 08:16:19;;;;;;;12.00;8.88;;;10.30;99.90;;;;;;5111225;27;20082;-83
2023/01/02 08:18:45;;;;;;;10.75;7.68;;;10.30;99.90;;;;;;5112341;27;20053;-82
2023/01/02 08:21:12;;;;;;;9.95;6.93;;;10.20;99.90;;;;;;5141377;27;20497;-82
2023/01/02 08:23:38;;;;;;;7.65;4.13;;;10.10;99.90;;;;;;5125416;27;20051;-81
2023/01/02 08:26:06;;;;;;;8.38;4.22;;;10.10;99.90;;;;;;5128242;27;20261;-79
2023/01/02 08:28:33;;;;;;;8.23;4.30;;;10.00;99.90;;;;;;5110461;27;20088;-79
2023/01/02 08:30:59;;;;;;;7.85;4.53;;;9.90;99.90;;;;;;5124614;27;20113;-80
2023/01/02 08:33:26;;;;;;;7.93;3.90;;;9.90;99.90;;;;;;5109925;27;20039;-80
2023/01/02 08:35:52;;;;;;;7.13;3.40;;;9.80;99.90;;;;;;5104754;27;20110;-81
2023/01/02 08:38:18;;;;;;;7.30;3.38;;;9.80;99.90;;;;;;5108703;27;20438;-80
2023/01/02 08:40:44;;;;;;;6.90;3.15;;;9.70;99.90;;;;;;5125811;27;20126;-81
2023/01/02 08:43:09;;;;;;;6.18;2.70;;;9.70;99.90;;;;;;5127934;27;20168;-80
2023/01/02 08:45:35;;;;;;;4.00;1.98;;;9.60;99.90;;;;;;5107112;27;20039;-83
2023/01/02 08:48:01;;;;;;;4.93;2.03;;;9.50;99.90;;;;;;5103108;27;20035;-80
2023/01/02 08:50:27;;;;;;;4.80;1.88;;;9.50;99.90;;;;;;5104848;27;20130;-81
2023/01/02 08:52:52;;;;;;;5.13;2.13;;;9.40;99.90;;;;;;5106958;27;20042;-81
2023/01/02 08:55:18;;;;;;;5.40;2.10;;;9.40;99.90;;;;;;5129707;27;20038;-82
2023/01/02 08:57:43;;;;;;;5.80;2.25;;;9.30;99.90;;;;;;5109280;27;20142;-81
2023/01/02 09:00:10;;;;;;;6.60;2.47;;;9.30;99.90;;;;;;5108258;27;20035;-81
2023/01/02 09:02:36;;;;;;;6.38;2.50;;;9.30;99.90;;;;;;5105535;27;20436;-84
2023/01/02 09:05:02;;;;;;;6.40;2.83;;;9.30;99.90;;;;;;5102643;27;20035;-82
2023/01/02 09:07:27;;;;;;;7.60;2.80;;;9.30;99.90;;;;;;5108818;27;20479;-81
2023/01/02 09:09:53;;;;;;;6.40;3.13;;;9.30;99.90;;;;;;5118787;27;20494;-81
2023/01/02 09:12:19;;;;;;;7.00;3.08;;;9.30;99.90;;;;;;5124679;27;20039;-81
2023/01/02 09:14:44;;;;;;;6.38;2.70;;;9.30;99.90;;;;;;5108593;27;20395;-79
2023/01/02 09:17:10;;;;;;;8.50;3.33;;;9.30;99.90;;;;;;5106969;27;20487;-81
2023/01/02 09:19:38;;;;;;;6.13;3.20;;;9.20;99.90;;;;;;5127020;27;20406;-81
2023/01/02 09:22:04;;;;;;;6.25;3.40;;;9.20;99.90;;;;;;5106052;27;20047;-80
2023/01/02 09:24:30;;;;;;;8.02;3.53;;;9.20;99.90;;;;;;5125103;27;20054;-80
2023/01/02 09:26:55;;;;;;;6.00;2.85;;;9.20;99.90;;;;;;5109539;27;20467;-80
2023/01/02 09:29:21;;;;;;;6.88;3.30;;;9.10;99.90;;;;;;5109827;27;20069;-80
2023/01/02 09:31:47;;;;;;;6.35;3.03;;;9.10;99.90;;;;;;5110617;27;20072;-81
2023/01/02 09:34:12;;;;;;;6.45;3.20;;;9.10;99.90;;;;;;5108869;27;20071;-81
2023/01/02 09:36:38;;;;;;;6.95;3.08;;;9.10;99.90;;;;;;5108814;27;20035;-82
2023/01/02 09:39:04;;;;;;;7.22;3.33;;;9.10;99.90;;;;;;5105162;27;20089;-82
2023/01/02 09:41:44;;;;;;;6.95;3.17;;;9.10;99.90;;;;;;5109900;27;20045;-82
2023/01/02 09:44:13;;;;;;;7.13;3.33;;;9.10;99.90;;;;;;5105897;27;20121;-80
2023/01/02 09:46:45;;;;;;;6.82;3.00;;;9.10;99.90;;;;;;5092454;27;20139;-80
2023/01/02 09:49:15;;;;;;;7.22;3.20;;;9.10;99.90;;;;;;5107388;27;20429;-82
2023/01/02 09:51:42;;;;;;;6.57;2.85;;;9.10;99.90;;;;;;5117802;27;20031;-81
2023/01/02 09:54:17;;;;;;;7.00;3.17;;;9.20;99.90;;;;;;5100095;27;20481;-83
2023/01/02 09:56:48;;;;;;;7.88;3.20;;;9.20;99.90;;;;;;5105190;27;20063;-81
2023/01/02 09:59:35;;;;;;;6.38;3.10;;;9.20;99.90;;;;;;5123282;27;20040;-81
2023/01/02 10:02:15;;;;;;;6.00;2.55;;;9.20;99.90;;;;;;5108319;27;20043;-83
2023/01/02 10:05:09;;;;;;;6.28;2.88;;;9.20;99.90;;;;;;5109485;27;20057;-82
2023/01/02 10:07:51;;;;;;;6.15;2.58;;;9.20;99.90;;;;;;5108280;27;20043;-82
2023/01/02 10:10:43;;;;;;;5.97;2.60;;;9.30;99.90;;;;;;5092455;27;20042;-81
2023/01/02 10:13:34;;;;;;;6.10;2.40;;;9.20;99.90;;;;;;5106655;27;20091;-83
2023/01/02 10:16:03;;;;;;;7.05;2.85;;;9.30;99.90;;;;;;5101207;27;20047;-83
2023/01/02 10:18:34;;;;;;;6.65;2.88;;;9.20;99.90;;;;;;5126302;27;20084;-83
2023/01/02 10:21:28;;;;;;;7.32;3.20;;;9.20;99.90;;;;;;5110764;27;20074;-85
2023/01/02 10:24:01;;;;;;;8.35;3.10;;;9.30;99.90;;;;;;5124858;27;20402;-83
2023/01/02 10:26:34;;;;;;;7.07;2.90;;;9.30;99.90;;;;;;5090140;28;20039;-83
2023/01/02 10:29:32;;;;;;;7.22;2.85;;;9.30;99.90;;;;;;5109475;27;20372;-83
2023/01/02 10:32:07;;;;;;;7.90;2.50;;;9.30;99.90;;;;;;5109155;27;20412;-83
2023/01/02 10:34:52;;;;;;;8.80;3.30;;;9.30;99.90;;;;;;5113404;27;20052;-83
2023/01/02 10:37:18;;;;;;;6.78;3.20;;;9.30;99.90;;;;;;5105978;27;20126;-83
2023/01/02 10:39:48;;;;;;;7.32;3.40;;;9.20;99.90;;;;;;5123653;27;20126;-84
2023/01/02 10:42:15;;;;;;;8.82;3.33;;;9.20;99.90;;;;;;5104277;27;20047;-85
2023/01/02 10:44:43;;;;;;;7.63;3.50;;;9.20;99.90;;;;;;5108008;27;20433;-84
2023/01/02 10:47:36;;;;;;;7.28;3.30;;;9.20;99.90;;;;;;5107255;28;20126;-84
2023/01/02 10:50:22;;;;;;;8.30;3.95;;;9.20;99.90;;;;;;5109759;28;20050;-84
2023/01/02 10:52:51;;;;;;;7.00;3.40;;;9.20;99.90;;;;;;5108604;28;20040;-85
2023/01/02 10:55:33;;;;;;;9.50;3.40;;;9.30;99.90;;;;;;5109344;28;20164;-83
2023/01/02 10:58:05;;;;;;;7.72;3.40;;;9.30;99.90;;;;;;5125116;28;20050;-84
2023/01/02 11:00:34;;;;;;;7.38;3.72;;;9.40;99.90;;;;;;5104566;28;20043;-85
2023/01/02 11:03:12;;;;;;;8.25;4.00;;;9.40;99.90;;;;;;5128178;28;20156;-86
2023/01/02 11:05:53;;;;;;;8.63;3.35;;;9.40;99.90;;;;;;5108091;28;20043;-84
2023/01/02 11:08:23;;;;;;;8.68;3.83;;;9.50;99.90;;;;;;5124648;27;20054;-84
2023/01/02 11:10:50;;;;;;;8.27;4.22;;;9.60;99.90;;;;;;5113162;27;20497;-82
2023/01/02 11:13:20;;;;;;;9.85;4.43;;;9.60;99.90;;;;;;5107036;27;20436;-82
2023/01/02 11:16:01;;;;;;;8.35;4.03;;;9.60;99.90;;;;;;5105291;27;20028;-83
2023/01/02 11:18:34;;;;;;;7.38;3.80;;;9.60;99.90;;;;;;5110080;27;20054;-82
2023/01/02 11:21:05;;;;;;;8.27;3.90;;;9.60;99.90;;;;;;5112004;27;20066;-83
2023/01/02 11:23:36;;;;;;;7.90;3.58;;;9.60;99.90;;;;;;5131588;27;20051;-83
2023/01/02 11:26:04;;;;;;;7.40;3.78;;;9.60;99.90;;;;;;5108943;27;20047;-84
2023/01/02 11:28:33;;;;;;;7.40;3.58;;;9.60;99.90;;;;;;5112352;27;20070;-83
2023/01/02 11:31:08;;;;;;;7.60;3.20;;;9.60;99.90;;;;;;5130746;27;20043;-84
2023/01/02 11:33:35;;;;;;;9.15;3.55;;;9.60;99.90;;;;;;5103852;27;20083;-83
2023/01/02 11:36:09;;;;;;;7.75;3.17;;;9.60;99.90;;;;;;5107015;27;20565;-84
2023/01/02 11:38:52;;;;;;;7.70;2.88;;;9.60;99.90;;;;;;5113415;27;20082;-85
2023/01/02 11:44:28;;;;;;;7.25;2.53;;;9.50;99.90;;;;;;5125643;27;20039;-81
2023/01/02 11:46:55;;;;;;;7.03;2.90;;;9.50;99.90;;;;;;5110234;27;20047;-82
2023/01/02 11:49:25;;;;;;;7.03;2.78;;;9.50;99.90;;;;;;5129080;27;20406;-81
2023/01/02 11:52:02;;;;;;;9.00;3.25;;;9.50;99.90;;;;;;5106561;27;20132;-81
2023/01/02 11:54:43;;;;;;;9.38;3.00;;;9.40;99.90;;;;;;5109021;27;20375;-81
2023/01/02 11:57:17;;;;;;;8.02;2.70;;;9.50;99.90;;;;;;5109111;27;20066;-80
2023/01/02 11:59:46;;;;;;;11.45;3.22;;;9.40;99.90;;;;;;5144949;27;20470;-82
2023/01/02 12:02:49;;;;;;;10.77;2.97;;;9.40;99.90;;;;;;5124421;27;20792;-80
2023/01/02 12:05:20;;;;;;;8.55;2.95;;;9.40;99.90;;;;;;5058058;27;20058;-81
2023/01/02 12:07:54;;;;;;;8.52;3.22;;;9.50;99.90;;;;;;5127819;27;20031;-82
2023/01/02 12:10:49;;;;;;;10.50;3.55;;;9.50;99.90;;;;;;5128508;27;20051;-83
2023/01/02 12:13:36;;;;;;;9.50;3.97;;;9.60;99.90;;;;;;5083688;27;20491;-84
2023/01/02 12:16:05;;;;;;;8.98;3.85;;;9.60;99.90;;;;;;5105774;27;20478;-82
2023/01/02 12:18:36;;;;;;;11.57;4.45;;;9.60;99.90;;;;;;5111404;27;20039;-81
2023/01/02 12:21:20;;;;;;;;;;;9.60;99.90;;;;;;5108851;27;20047;-82
2023/01/02 12:24:12;;;;;;;9.77;4.90;;;9.60;99.90;;;;;;5104084;27;19994;-82
2023/01/02 12:26:56;;;;;;;10.80;4.68;;;9.60;99.90;;;;;;5106494;27;20048;-83
2023/01/02 12:29:40;;;;;;;12.10;4.80;;;9.60;99.90;;;;;;5141274;27;20066;-82
2023/01/02 12:32:06;;;;;;;11.93;4.40;;;9.60;99.90;;;;;;5103429;27;20054;-82
2023/01/02 12:34:47;;;;;;;9.05;4.13;;;9.50;99.90;;;;;;5128249;27;20569;-84
2023/01/02 12:37:41;;;;;;;10.50;4.00;;;9.50;99.90;;;;;;5107264;27;20130;-83
2023/01/02 12:40:22;;;;;;;9.10;3.72;;;9.60;99.90;;;;;;5104038;27;20043;-83
2023/01/02 12:43:06;;;;;;;10.30;3.50;;;9.70;99.90;;;;;;5127563;27;20039;-86
2023/01/02 12:45:45;;;;;;;10.73;4.03;;;9.70;99.90;;;;;;5122792;27;20065;-83
2023/01/02 12:48:48;;;;;;;8.90;3.58;;;9.70;99.90;;;;;;5090859;27;20486;-81
2023/01/02 12:51:32;;;;;;;9.63;3.30;;;9.70;99.90;;;;;;5122300;27;20061;-81
2023/01/02 12:54:11;;;;;;;10.25;3.80;;;9.70;99.90;;;;;;5116242;27;20083;-81
2023/01/02 12:57:03;;;;;;;14.57;3.63;;;9.70;99.90;;;;;;5103969;27;20034;-82
2023/01/02 12:59:32;;;;;;;11.02;3.28;;;9.60;99.90;;;;;;5099246;27;20055;-85
2023/01/02 13:02:01;;;;;;;10.65;3.03;;;9.60;99.90;;;;;;5101758;27;20043;-84
2023/01/02 13:04:35;;;;;;;12.07;3.95;;;9.60;99.90;;;;;;5121881;27;20407;-86